Time,TemperatureF,DewpointF,PressureIn,WindDirection,WindDirectionDegrees,WindSpeedMPH,WindSpeedGustMPH,Humidity,HourlyPrecipIn,Conditions,Clouds,dailyrainin,SoftwareType,DateUTC
2013-04-02 00:00:00,47.0,40.5,30.08,NW,306,0.0,2.0,78,0.00,,---,0.01,VWS V14.00,2013-04-02 04:00:00,
2013-04-02 00:05:00,47.2,40.7,30.08,NW,306,0.0,0.0,78,0.00,,---,0.00,VWS V14.00,2013-04-02 04:05:00,
2013-04-02 00:10:00,47.3,40.5,30.08,NW,306,0.0,0.0,77,0.00,,---,0.00,VWS V14.00,2013-04-02 04:10:00,
2013-04-02 00:15:00,47.4,40.2,30.09,NW,306,0.0,0.0,76,0.00,,---,0.00,VWS V14.00,2013-04-02 04:15:00,
2013-04-02 00:20:00,47.4,40.9,30.08,NW,306,0.0,0.0,78,0.00,,---,0.00,VWS V14.00,2013-04-02 04:20:00,
2013-04-02 00:25:00,47.3,40.5,30.08,NW,306,0.0,0.0,77,0.00,,---,0.00,VWS V14.00,2013-04-02 04:25:00,
2013-04-02 00:30:00,47.2,40.4,30.09,NW,306,0.0,0.0,77,0.00,,---,0.00,VWS V14.00,2013-04-02 04:30:00,
2013-04-02 00:35:00,47.1,40.9,30.09,NW,306,0.0,0.0,79,0.00,,---,0.00,VWS V14.00,2013-04-02 04:35:00,
2013-04-02 00:40:00,46.9,40.7,30.09,NW,306,0.0,0.0,79,0.00,,---,0.00,VWS V14.00,2013-04-02 04:40:00,
2013-04-02 00:45:00,46.7,40.5,30.09,NW,306,0.0,0.0,79,0.00,,---,0.00,VWS V14.00,2013-04-02 04:45:00,
2013-04-02 00:50:00,46.4,40.6,30.09,NW,306,0.0,0.0,80,0.00,,---,0.00,VWS V14.00,2013-04-02 04:50:00,
2013-04-02 00:55:00,46.1,40.3,30.09,NW,306,0.0,0.0,80,0.00,,---,0.00,VWS V14.00,2013-04-02 04:55:00,
2013-04-02 01:00:00,45.9,40.4,30.09,NW,306,0.0,0.0,81,0.00,,---,0.00,VWS V14.00,2013-04-02 05:00:00,
2013-04-02 01:05:00,45.6,40.1,30.09,NW,306,0.0,0.0,81,0.00,,---,0.00,VWS V14.00,2013-04-02 05:05:00,
2013-04-02 01:10:00,45.3,40.1,30.09,NW,306,0.0,0.0,82,0.00,,---,0.00,VWS V14.00,2013-04-02 05:10:00,
2013-04-02 01:15:00,45.1,40.2,30.09,NW,306,0.0,0.0,83,0.00,,---,0.00,VWS V14.00,2013-04-02 05:15:00,
2013-04-02 01:20:00,44.9,40.1,30.09,NW,306,0.0,0.0,83,0.00,,---,0.00,VWS V14.00,2013-04-02 05:20:00,
2013-04-02 01:25:00,44.7,40.2,30.09,NW,306,0.0,0.0,84,0.00,,---,0.00,VWS V14.00,2013-04-02 05:25:00,
2013-04-02 01:30:00,44.5,40.0,30.09,NW,306,0.0,1.0,84,0.00,,---,0.00,VWS V14.00,2013-04-02 05:30:00,
2013-04-02 01:35:00,44.3,40.1,30.09,NW,306,0.0,0.0,85,0.00,,---,0.00,VWS V14.00,2013-04-02 05:35:00,
2013-04-02 01:40:00,44.2,40.0,30.09,NW,306,0.0,0.0,85,0.00,,---,0.00,VWS V14.00,2013-04-02 05:40:00,
2013-04-02 01:45:00,44.0,40.1,30.09,NW,306,0.0,0.0,86,0.00,,---,0.00,VWS V14.00,2013-04-02 05:45:00,
2013-04-02 01:50:00,43.9,40.0,30.09,NW,306,0.0,0.0,86,0.00,,---,0.00,VWS V14.00,2013-04-02 05:50:00,
2013-04-02 01:55:00,43.7,39.8,30.09,NW,306,0.0,0.0,86,0.00,,---,0.00,VWS V14.00,2013-04-02 05:55:00,
2013-04-02 02:00:00,43.5,39.6,30.09,NW,306,0.0,0.0,86,0.00,,---,0.00,VWS V14.00,2013-04-02 06:00:00,
2013-04-02 02:05:00,43.4,39.5,30.09,NW,306,0.0,0.0,86,0.00,,---,0.00,VWS V14.00,2013-04-02 06:05:00,
2013-04-02 02:10:00,43.3,39.4,30.09,NW,306,0.0,0.0,86,0.00,,---,0.00,VWS V14.00,2013-04-02 06:10:00,
2013-04-02 02:15:00,43.2,39.3,30.09,NW,306,0.0,0.0,86,0.00,,---,0.00,VWS V14.00,2013-04-02 06:15:00,
2013-04-02 02:20:00,43.2,39.6,30.09,NW,306,0.0,0.0,87,0.00,,---,0.00,VWS V14.00,2013-04-02 06:20:00,
2013-04-02 02:25:00,43.2,40.2,30.09,NW,306,0.0,0.0,89,0.00,,---,0.00,VWS V14.00,2013-04-02 06:25:00,
2013-04-02 02:30:00,43.3,40.3,30.10,NW,306,0.0,0.0,89,0.00,,---,0.00,VWS V14.00,2013-04-02 06:30:00,
2013-04-02 02:35:00,43.2,40.2,30.10,NW,306,0.0,0.0,89,0.00,,---,0.00,VWS V14.00,2013-04-02 06:35:00,
2013-04-02 02:40:00,43.1,40.1,30.10,NW,306,0.0,0.0,89,0.00,,---,0.00,VWS V14.00,2013-04-02 06:40:00,
2013-04-02 02:45:00,43.0,40.0,30.10,NW,306,0.0,0.0,89,0.00,,---,0.00,VWS V14.00,2013-04-02 06:45:00,
2013-04-02 02:50:00,42.8,39.5,30.11,NW,306,0.0,0.0,88,0.00,,---,0.00,VWS V14.00,2013-04-02 06:50:00,
2013-04-02 02:55:00,42.6,39.3,30.11,NW,306,0.0,0.0,88,0.00,,---,0.00,VWS V14.00,2013-04-02 06:55:00,
2013-04-02 03:00:00,42.5,39.5,30.11,NW,306,0.0,0.0,89,0.00,,---,0.00,VWS V14.00,2013-04-02 07:00:00,
2013-04-02 03:05:00,42.3,39.3,30.11,NW,306,0.0,0.0,89,0.00,,---,0.00,VWS V14.00,2013-04-02 07:05:00,
2013-04-02 03:10:00,42.1,39.1,30.11,WNW,302,0.0,0.0,89,0.00,,---,0.00,VWS V14.00,2013-04-02 07:10:00,
2013-04-02 03:15:00,42.1,38.8,30.10,NW,307,0.0,1.0,88,0.00,,---,0.00,VWS V14.00,2013-04-02 07:15:00,
2013-04-02 03:20:00,42.3,38.7,30.10,NW,307,0.0,1.0,87,0.00,,---,0.00,VWS V14.00,2013-04-02 07:20:00,
2013-04-02 03:25:00,42.8,38.3,30.10,NE,42,0.0,4.0,84,0.00,,---,0.00,VWS V14.00,2013-04-02 07:25:00,
2013-04-02 03:30:00,43.4,38.0,30.10,East,87,0.0,4.0,81,0.00,,---,0.00,VWS V14.00,2013-04-02 07:30:00,
2013-04-02 03:35:00,43.8,37.4,30.10,East,88,0.0,2.0,78,0.00,,---,0.00,VWS V14.00,2013-04-02 07:35:00,
2013-04-02 03:40:00,44.2,37.5,30.11,NE,38,0.0,2.0,77,0.00,,---,0.00,VWS V14.00,2013-04-02 07:40:00,
2013-04-02 03:45:00,44.3,37.2,30.11,NE,44,0.0,4.0,76,0.00,,---,0.00,VWS V14.00,2013-04-02 07:45:00,
2013-04-02 03:50:00,44.4,37.3,30.11,NE,44,0.0,4.0,76,0.00,,---,0.00,VWS V14.00,2013-04-02 07:50:00,
2013-04-02 03:55:00,44.3,37.2,30.11,NE,44,0.0,0.0,76,0.00,,---,0.00,VWS V14.00,2013-04-02 07:55:00,
2013-04-02 04:00:00,44.2,36.8,30.11,ENE,57,0.0,2.0,75,0.00,,---,0.00,VWS V14.00,2013-04-02 08:00:00,
2013-04-02 04:05:00,44.1,36.7,30.12,ENE,57,0.0,0.0,75,0.00,,---,0.00,VWS V14.00,2013-04-02 08:05:00,
2013-04-02 04:10:00,43.8,36.4,30.12,ENE,57,0.0,0.0,75,0.00,,---,0.00,VWS V14.00,2013-04-02 08:10:00,
2013-04-02 04:15:00,43.6,36.9,30.12,ENE,57,0.0,0.0,77,0.00,,---,0.00,VWS V14.00,2013-04-02 08:15:00,
2013-04-02 04:20:00,43.3,37.2,30.12,ENE,57,0.0,1.0,79,0.00,,---,0.00,VWS V14.00,2013-04-02 08:20:00,
2013-04-02 04:25:00,43.0,36.6,30.12,ENE,57,0.0,0.0,78,0.00,,---,0.00,VWS V14.00,2013-04-02 08:25:00,
2013-04-02 04:30:00,42.7,36.3,30.12,ENE,57,0.0,0.0,78,0.00,,---,0.00,VWS V14.00,2013-04-02 08:30:00,
2013-04-02 04:35:00,42.5,36.1,30.12,ENE,57,0.0,0.0,78,0.00,,---,0.00,VWS V14.00,2013-04-02 08:35:00,
2013-04-02 04:40:00,42.5,36.1,30.13,ENE,58,0.0,3.0,78,0.00,,---,0.00,VWS V14.00,2013-04-02 08:40:00,
2013-04-02 04:45:00,42.5,35.8,30.13,ENE,58,0.0,2.0,77,0.00,,---,0.00,VWS V14.00,2013-04-02 08:45:00,
2013-04-02 04:50:00,42.7,36.0,30.13,ENE,58,1.0,2.0,77,0.00,,---,0.00,VWS V14.00,2013-04-02 08:50:00,
2013-04-02 04:55:00,42.7,35.7,30.14,ENE,58,0.0,2.0,76,0.00,,---,0.00,VWS V14.00,2013-04-02 08:55:00,
2013-04-02 05:00:00,42.8,35.4,30.14,NE,48,0.0,2.0,75,0.00,,---,0.00,VWS V14.00,2013-04-02 09:00:00,
2013-04-02 05:05:00,42.8,35.4,30.14,NE,48,0.0,1.0,75,0.00,,---,0.00,VWS V14.00,2013-04-02 09:05:00,
2013-04-02 05:10:00,42.7,35.3,30.14,NE,48,0.0,1.0,75,0.00,,---,0.00,VWS V14.00,2013-04-02 09:10:00,
2013-04-02 05:15:00,42.6,35.2,30.14,NE,48,0.0,0.0,75,0.00,,---,0.00,VWS V14.00,2013-04-02 09:15:00,
2013-04-02 05:20:00,42.4,35.0,30.14,NE,48,0.0,1.0,75,0.00,,---,0.00,VWS V14.00,2013-04-02 09:20:00,
2013-04-02 05:25:00,42.2,35.2,30.15,NE,48,0.0,0.0,76,0.00,,---,0.00,VWS V14.00,2013-04-02 09:25:00,
2013-04-02 05:30:00,42.0,35.3,30.15,NE,48,0.0,0.0,77,0.00,,---,0.00,VWS V14.00,2013-04-02 09:30:00,
2013-04-02 05:35:00,41.7,35.0,30.15,NE,48,0.0,0.0,77,0.00,,---,0.00,VWS V14.00,2013-04-02 09:35:00,
2013-04-02 05:40:00,41.5,34.8,30.15,NE,51,0.0,1.0,77,0.00,,---,0.00,VWS V14.00,2013-04-02 09:40:00,
2013-04-02 05:45:00,41.3,34.3,30.15,NE,51,0.0,1.0,76,0.00,,---,0.00,VWS V14.00,2013-04-02 09:45:00,
2013-04-02 05:50:00,41.2,33.9,30.15,WNW,283,0.0,4.0,75,0.00,,---,0.00,VWS V14.00,2013-04-02 09:50:00,
2013-04-02 05:55:00,41.2,33.2,30.15,NNW,327,0.0,4.0,73,0.00,,---,0.00,VWS V14.00,2013-04-02 09:55:00,
2013-04-02 06:00:00,41.2,33.2,30.15,NNW,327,0.0,4.0,73,0.00,,---,0.00,VWS V14.00,2013-04-02 10:00:00,
2013-04-02 06:05:00,41.2,32.2,30.16,NE,38,0.0,7.0,70,0.00,,---,0.00,VWS V14.00,2013-04-02 10:05:00,
2013-04-02 06:10:00,41.2,32.2,30.16,East,92,2.0,7.0,70,0.00,,---,0.00,VWS V14.00,2013-04-02 10:10:00,
2013-04-02 06:15:00,41.2,31.8,30.16,ENE,59,0.0,4.0,69,0.00,,---,0.00,VWS V14.00,2013-04-02 10:15:00,
2013-04-02 06:20:00,41.2,31.5,30.16,NE,55,1.0,4.0,68,0.00,,---,0.00,VWS V14.00,2013-04-02 10:20:00,
2013-04-02 06:25:00,41.1,31.4,30.16,NNE,29,0.0,4.0,68,0.00,,---,0.00,VWS V14.00,2013-04-02 10:25:00,
2013-04-02 06:30:00,41.1,31.7,30.17,NNW,338,0.0,4.0,69,0.00,,---,0.00,VWS V14.00,2013-04-02 10:30:00,
2013-04-02 06:35:00,40.9,31.5,30.17,NNW,339,0.0,1.0,69,0.00,,---,0.00,VWS V14.00,2013-04-02 10:35:00,
2013-04-02 06:40:00,40.7,31.3,30.17,ENE,70,0.0,2.0,69,0.00,,---,0.00,VWS V14.00,2013-04-02 10:40:00,
2013-04-02 06:45:00,40.5,31.1,30.17,ENE,69,0.0,1.0,69,0.00,,---,0.00,VWS V14.00,2013-04-02 10:45:00,
2013-04-02 06:50:00,40.3,31.0,30.17,NNW,345,0.0,2.0,69,0.00,,---,0.00,VWS V14.00,2013-04-02 10:50:00,
2013-04-02 06:55:00,40.2,30.5,30.17,NNW,344,0.0,1.0,68,0.00,,---,0.00,VWS V14.00,2013-04-02 10:55:00,
2013-04-02 07:00:00,40.1,30.4,30.16,West,273,0.0,6.0,68,0.00,,---,0.00,VWS V14.00,2013-04-02 11:00:00,
2013-04-02 07:05:00,40.0,29.9,30.17,NE,36,0.0,3.0,67,0.00,,---,0.00,VWS V14.00,2013-04-02 11:05:00,
2013-04-02 07:10:00,39.9,30.2,30.17,NNE,13,0.0,3.0,68,0.00,,---,0.00,VWS V14.00,2013-04-02 11:10:00,
2013-04-02 07:15:00,39.8,30.1,30.17,WNW,302,0.0,4.0,68,0.00,,---,0.00,VWS V14.00,2013-04-02 11:15:00,
2013-04-02 07:20:00,39.6,29.9,30.17,WNW,302,0.0,4.0,68,0.00,,---,0.00,VWS V14.00,2013-04-02 11:20:00,
2013-04-02 07:25:00,39.5,29.5,30.17,NNW,336,0.0,2.0,67,0.00,,---,0.00,VWS V14.00,2013-04-02 11:25:00,
2013-04-02 07:30:00,39.5,29.5,30.17,NNW,336,0.0,2.0,67,0.00,,---,0.00,VWS V14.00,2013-04-02 11:30:00,
2013-04-02 07:35:00,39.5,29.1,30.18,ENE,59,0.0,3.0,66,0.00,,---,0.00,VWS V14.00,2013-04-02 11:35:00,
2013-04-02 07:40:00,39.5,29.8,30.18,ENE,57,0.0,3.0,68,0.00,,---,0.00,VWS V14.00,2013-04-02 11:40:00,
2013-04-02 07:45:00,39.5,29.5,30.18,ENE,57,0.0,1.0,67,0.00,,---,0.00,VWS V14.00,2013-04-02 11:45:00,
2013-04-02 07:50:00,39.3,29.6,30.19,NE,46,0.0,4.0,68,0.00,,---,0.00,VWS V14.00,2013-04-02 11:50:00,
2013-04-02 07:55:00,39.3,29.3,30.20,NE,46,0.0,0.0,67,0.00,,---,0.00,VWS V14.00,2013-04-02 11:55:00,
2013-04-02 08:00:00,39.2,30.6,30.20,NE,46,0.0,0.0,71,0.00,,---,0.00,VWS V14.00,2013-04-02 12:00:00,
2013-04-02 08:05:00,39.2,30.2,30.20,ENE,70,0.0,2.0,70,0.00,,---,0.00,VWS V14.00,2013-04-02 12:05:00,
2013-04-02 08:10:00,39.4,29.7,30.20,NE,34,0.0,4.0,68,0.00,,---,0.00,VWS V14.00,2013-04-02 12:10:00,
2013-04-02 08:15:00,39.7,30.0,30.20,North,5,2.0,4.0,68,0.00,,---,0.00,VWS V14.00,2013-04-02 12:15:00,
2013-04-02 08:20:00,39.9,29.5,30.20,WNW,300,0.0,4.0,66,0.00,,---,0.00,VWS V14.00,2013-04-02 12:20:00,
2013-04-02 08:25:00,40.3,29.1,30.20,West,263,0.0,3.0,64,0.00,,---,0.00,VWS V14.00,2013-04-02 12:25:00,
2013-04-02 08:30:00,40.6,29.4,30.21,NNW,348,0.0,5.0,64,0.00,,---,0.00,VWS V14.00,2013-04-02 12:30:00,
2013-04-02 08:35:00,41.0,28.6,30.21,North,9,1.0,5.0,61,0.00,,---,0.00,VWS V14.00,2013-04-02 12:35:00,
2013-04-02 08:40:00,41.3,28.5,30.21,ENE,63,0.0,6.0,60,0.00,,---,0.00,VWS V14.00,2013-04-02 12:40:00,
2013-04-02 08:45:00,41.7,29.7,30.21,ENE,59,0.0,1.0,62,0.00,,---,0.00,VWS V14.00,2013-04-02 12:45:00,
2013-04-02 08:50:00,42.2,29.3,30.21,ENE,70,1.0,4.0,60,0.00,,---,0.00,VWS V14.00,2013-04-02 12:50:00,
2013-04-02 08:55:00,42.7,29.4,30.21,North,360,0.0,6.0,59,0.00,,---,0.00,VWS V14.00,2013-04-02 12:55:00,
2013-04-02 09:00:00,43.0,29.7,30.21,NE,38,0.0,6.0,59,0.00,,---,0.00,VWS V14.00,2013-04-02 13:00:00,
2013-04-02 09:05:00,43.5,30.1,30.21,East,90,3.0,4.0,59,0.00,,---,0.00,VWS V14.00,2013-04-02 13:05:00,
2013-04-02 09:10:00,44.1,29.4,30.21,NNE,33,1.0,5.0,56,0.00,,---,0.00,VWS V14.00,2013-04-02 13:10:00,
2013-04-02 09:14:00,44.3,29.2,30.21,NNE,32,1.0,7.0,55,0.00,,---,0.00,VWS V14.00,2013-04-02 13:14:00,
2013-04-02 09:19:00,44.4,28.4,30.22,NNE,15,1.0,7.0,53,0.00,,---,0.00,VWS V14.00,2013-04-02 13:19:00,
2013-04-02 09:20:00,44.4,28.4,30.22,NE,34,0.0,7.0,53,0.00,,---,0.00,VWS V14.00,2013-04-02 13:20:00,
2013-04-02 09:24:00,44.6,29.5,30.22,NE,42,1.0,4.0,55,0.00,,---,0.00,VWS V14.00,2013-04-02 13:24:00,
2013-04-02 09:29:00,45.1,29.5,30.21,North,360,2.0,6.0,54,0.00,,---,0.00,VWS V14.00,2013-04-02 13:29:00,
2013-04-02 09:30:00,45.1,29.5,30.21,NNE,15,2.0,6.0,54,0.00,,---,0.00,VWS V14.00,2013-04-02 13:30:00,
2013-04-02 09:34:00,45.5,29.8,30.22,NNE,29,0.0,5.0,54,0.00,,---,0.00,VWS V14.00,2013-04-02 13:34:00,
2013-04-02 09:39:00,46.0,29.4,30.22,WNW,290,2.0,7.0,52,0.00,,---,0.00,VWS V14.00,2013-04-02 13:39:00,
2013-04-02 09:40:00,46.0,29.4,30.22,North,355,0.0,7.0,52,0.00,,---,0.00,VWS V14.00,2013-04-02 13:40:00,
2013-04-02 09:44:00,46.3,29.2,30.22,NNW,348,7.0,8.0,51,0.00,,---,0.00,VWS V14.00,2013-04-02 13:44:00,
2013-04-02 09:49:00,46.5,29.8,30.21,North,360,5.0,8.0,52,0.00,,---,0.00,VWS V14.00,2013-04-02 13:49:00,
2013-04-02 09:50:00,46.5,29.8,30.21,NE,45,0.0,8.0,52,0.00,,---,0.00,VWS V14.00,2013-04-02 13:50:00,
2013-04-02 09:54:00,46.7,29.5,30.21,NNE,30,2.0,7.0,51,0.00,,---,0.00,VWS V14.00,2013-04-02 13:54:00,
2013-04-02 09:59:00,47.1,30.4,30.21,NNE,32,5.0,7.0,52,0.00,,---,0.00,VWS V14.00,2013-04-02 13:59:00,
2013-04-02 10:00:00,47.1,29.9,30.21,NNE,32,1.0,7.0,51,0.00,,---,0.00,VWS V14.00,2013-04-02 14:00:00,
2013-04-02 10:04:00,47.2,29.5,30.21,North,360,2.0,7.0,50,0.00,,---,0.00,VWS V14.00,2013-04-02 14:04:00,
2013-04-02 10:09:00,47.2,29.5,30.21,NNE,19,0.0,7.0,50,0.00,,---,0.00,VWS V14.00,2013-04-02 14:09:00,
2013-04-02 10:10:00,47.3,30.6,30.21,WNW,284,1.0,7.0,52,0.00,,---,0.00,VWS V14.00,2013-04-02 14:10:00,
2013-04-02 10:14:00,47.5,31.2,30.21,NNW,336,1.0,5.0,53,0.00,,---,0.00,VWS V14.00,2013-04-02 14:14:00,
2013-04-02 10:19:00,47.9,30.7,30.21,NNW,336,2.0,5.0,51,0.00,,---,0.00,VWS V14.00,2013-04-02 14:19:00,
2013-04-02 10:20:00,48.0,30.8,30.21,NE,34,2.0,5.0,51,0.00,,---,0.00,VWS V14.00,2013-04-02 14:20:00,
2013-04-02 10:24:00,48.3,31.5,30.21,NW,310,1.0,5.0,52,0.00,,---,0.00,VWS V14.00,2013-04-02 14:24:00,
2013-04-02 10:29:00,49.0,33.1,30.22,NE,34,2.0,7.0,54,0.00,,---,0.00,VWS V14.00,2013-04-02 14:29:00,
2013-04-02 10:30:00,49.0,31.2,30.22,ENE,76,1.0,7.0,50,0.00,,---,0.00,VWS V14.00,2013-04-02 14:30:00,
2013-04-02 10:34:00,49.2,30.9,30.22,NW,318,0.0,5.0,49,0.00,,---,0.00,VWS V14.00,2013-04-02 14:34:00,
2013-04-02 10:39:00,49.4,30.5,30.22,NNE,19,0.0,6.0,48,0.00,,---,0.00,VWS V14.00,2013-04-02 14:39:00,
2013-04-02 10:40:00,49.4,30.0,30.22,NNE,21,2.0,6.0,47,0.00,,---,0.00,VWS V14.00,2013-04-02 14:40:00,
2013-04-02 10:44:00,49.4,30.0,30.22,NNW,336,0.0,6.0,47,0.00,,---,0.00,VWS V14.00,2013-04-02 14:44:00,
2013-04-02 10:49:00,49.6,31.7,30.22,North,5,2.0,6.0,50,0.00,,---,0.00,VWS V14.00,2013-04-02 14:49:00,
2013-04-02 10:50:00,49.6,31.2,30.22,North,11,0.0,6.0,49,0.00,,---,0.00,VWS V14.00,2013-04-02 14:50:00,
2013-04-02 10:54:00,49.9,32.0,30.22,ESE,109,0.0,6.0,50,0.00,,---,0.00,VWS V14.00,2013-04-02 14:54:00,
2013-04-02 10:59:00,50.2,31.3,30.23,NNW,335,1.0,6.0,48,0.00,,---,0.00,VWS V14.00,2013-04-02 14:59:00,
2013-04-02 11:00:00,50.1,31.2,30.23,NNE,18,1.0,6.0,48,0.00,,---,0.00,VWS V14.00,2013-04-02 15:00:00,
2013-04-02 11:04:00,50.3,30.3,30.23,NNE,22,5.0,6.0,46,0.00,,---,0.00,VWS V14.00,2013-04-02 15:04:00,
2013-04-02 11:09:00,50.2,30.2,30.24,NE,45,1.0,6.0,46,0.00,,---,0.00,VWS V14.00,2013-04-02 15:09:00,
2013-04-02 11:10:00,50.2,29.7,30.24,ESE,115,0.0,6.0,45,0.00,,---,0.00,VWS V14.00,2013-04-02 15:10:00,
2013-04-02 11:14:00,50.2,30.8,30.24,NE,36,3.0,6.0,47,0.00,,---,0.00,VWS V14.00,2013-04-02 15:14:00,
2013-04-02 11:19:00,50.2,29.1,30.24,NE,54,0.0,6.0,44,0.00,,---,0.00,VWS V14.00,2013-04-02 15:19:00,
2013-04-02 11:20:00,50.2,29.7,30.24,ENE,61,2.0,6.0,45,0.00,,---,0.00,VWS V14.00,2013-04-02 15:20:00,
2013-04-02 11:24:00,50.3,30.9,30.24,NNE,30,1.0,5.0,47,0.00,,---,0.00,VWS V14.00,2013-04-02 15:24:00,
2013-04-02 11:29:00,50.6,30.1,30.24,NNE,27,4.0,5.0,45,0.00,,---,0.00,VWS V14.00,2013-04-02 15:29:00,
2013-04-02 11:30:00,50.6,31.1,30.24,NNE,19,1.0,5.0,47,0.00,,---,0.00,VWS V14.00,2013-04-02 15:30:00,
2013-04-02 11:34:00,50.8,29.1,30.23,East,91,2.0,4.0,43,0.00,,---,0.00,VWS V14.00,2013-04-02 15:34:00,
2013-04-02 11:39:00,50.8,30.2,30.23,NNE,17,1.0,6.0,45,0.00,,---,0.00,VWS V14.00,2013-04-02 15:39:00,
2013-04-02 11:40:00,50.9,29.8,30.23,NW,311,1.0,6.0,44,0.00,,---,0.00,VWS V14.00,2013-04-02 15:40:00,
2013-04-02 11:44:00,51.0,28.7,30.23,NNW,342,1.0,6.0,42,0.00,,---,0.00,VWS V14.00,2013-04-02 15:44:00,
2013-04-02 11:50:00,50.9,29.2,30.23,NE,47,1.0,6.0,43,0.00,,---,0.00,VWS V14.00,2013-04-02 15:50:00,
2013-04-02 11:55:00,50.7,28.5,30.23,ENE,63,6.0,9.0,42,0.00,,---,0.00,VWS V14.00,2013-04-02 15:55:00,
2013-04-02 12:00:00,50.1,28.5,30.23,NNW,342,0.0,9.0,43,0.00,,---,0.00,VWS V14.00,2013-04-02 16:00:00,
2013-04-02 12:05:00,50.0,27.8,30.23,East,90,5.0,9.0,42,0.00,,---,0.00,VWS V14.00,2013-04-02 16:05:00,
2013-04-02 12:10:00,49.7,28.1,30.23,NNW,348,2.0,9.0,43,0.00,,---,0.00,VWS V14.00,2013-04-02 16:10:00,
2013-04-02 12:15:00,49.6,29.7,30.23,NE,41,1.0,6.0,46,0.00,,---,0.00,VWS V14.00,2013-04-02 16:15:00,
2013-04-02 12:20:00,49.6,28.0,30.23,ENE,70,0.0,6.0,43,0.00,,---,0.00,VWS V14.00,2013-04-02 16:20:00,
2013-04-02 12:25:00,49.5,28.5,30.23,NE,36,4.0,4.0,44,0.00,,---,0.00,VWS V14.00,2013-04-02 16:25:00,
2013-04-02 12:30:00,49.6,28.0,30.23,NW,318,1.0,5.0,43,0.00,,---,0.00,VWS V14.00,2013-04-02 16:30:00,
2013-04-02 12:35:00,49.8,28.8,30.23,NNW,346,7.0,7.0,44,0.00,,---,0.00,VWS V14.00,2013-04-02 16:35:00,
2013-04-02 12:40:00,50.0,28.4,30.23,West,280,1.0,7.0,43,0.00,,---,0.00,VWS V14.00,2013-04-02 16:40:00,
2013-04-02 12:45:00,50.2,27.4,30.22,NNE,27,1.0,5.0,41,0.00,,---,0.00,VWS V14.00,2013-04-02 16:45:00,
2013-04-02 12:50:00,50.2,27.4,30.22,ENE,64,1.0,6.0,41,0.00,,---,0.00,VWS V14.00,2013-04-02 16:50:00,
2013-04-02 12:55:00,50.2,28.0,30.22,NNW,336,1.0,3.0,42,0.00,,---,0.00,VWS V14.00,2013-04-02 16:55:00,
2013-04-02 13:00:00,50.6,28.4,30.22,NE,40,2.0,4.0,42,0.00,,---,0.00,VWS V14.00,2013-04-02 17:00:00,
2013-04-02 13:05:00,51.0,27.5,30.21,NE,40,0.0,6.0,40,0.00,,---,0.00,VWS V14.00,2013-04-02 17:05:00,
2013-04-02 13:10:00,51.3,28.4,30.21,North,355,0.0,7.0,41,0.00,,---,0.00,VWS V14.00,2013-04-02 17:10:00,
2013-04-02 13:15:00,51.3,25.9,30.21,NNW,338,0.0,7.0,37,0.00,,---,0.00,VWS V14.00,2013-04-02 17:15:00,
2013-04-02 13:20:00,51.1,28.2,30.21,SSW,211,0.0,7.0,41,0.00,,---,0.00,VWS V14.00,2013-04-02 17:20:00,
2013-04-02 13:25:00,51.4,28.5,30.21,ENE,63,4.0,6.0,41,0.00,,---,0.00,VWS V14.00,2013-04-02 17:25:00,
2013-04-02 13:30:00,51.8,30.0,30.21,NW,316,0.0,6.0,43,0.00,,---,0.00,VWS V14.00,2013-04-02 17:30:00,
2013-04-02 13:35:00,52.4,28.8,30.21,NW,309,1.0,8.0,40,0.00,,---,0.00,VWS V14.00,2013-04-02 17:35:00,
2013-04-02 13:40:00,52.8,29.2,30.21,NW,309,0.0,8.0,40,0.00,,---,0.00,VWS V14.00,2013-04-02 17:40:00,
2013-04-02 13:45:00,53.1,28.8,30.21,North,11,1.0,4.0,39,0.00,,---,0.00,VWS V14.00,2013-04-02 17:45:00,
2013-04-02 13:50:00,53.1,29.4,30.21,WNW,289,0.0,4.0,40,0.00,,---,0.00,VWS V14.00,2013-04-02 17:50:00,
2013-04-02 13:55:00,53.5,29.8,30.20,WNW,288,1.0,5.0,40,0.00,,---,0.00,VWS V14.00,2013-04-02 17:55:00,
2013-04-02 14:00:00,53.7,30.0,30.20,ENE,57,1.0,5.0,40,0.00,,---,0.00,VWS V14.00,2013-04-02 18:00:00,
2013-04-02 14:05:00,53.6,29.9,30.20,ENE,72,2.0,4.0,40,0.00,,---,0.00,VWS V14.00,2013-04-02 18:05:00,
2013-04-02 14:10:00,53.3,29.0,30.19,NE,48,1.0,2.0,39,0.00,,---,0.00,VWS V14.00,2013-04-02 18:10:00,
2013-04-02 14:15:00,53.0,28.1,30.19,North,10,1.0,7.0,38,0.00,,---,0.00,VWS V14.00,2013-04-02 18:15:00,
2013-04-02 14:20:00,53.3,30.8,30.18,NE,44,2.0,2.0,42,0.00,,---,0.00,VWS V14.00,2013-04-02 18:20:00,
2013-04-02 14:25:00,53.6,30.5,30.18,SE,128,4.0,5.0,41,0.00,,---,0.00,VWS V14.00,2013-04-02 18:25:00,
2013-04-02 14:30:00,53.8,30.7,30.18,SE,132,0.0,0.0,41,0.00,,---,0.00,VWS V14.00,2013-04-02 18:30:00,
2013-04-02 14:35:00,54.5,30.7,30.17,NE,55,3.0,8.0,40,0.00,,---,0.00,VWS V14.00,2013-04-02 18:35:00,
2013-04-02 14:40:00,55.0,31.1,30.17,ESE,104,1.0,1.0,40,0.00,,---,0.00,VWS V14.00,2013-04-02 18:40:00,
2013-04-02 14:45:00,55.9,30.7,30.17,West,261,2.0,5.0,38,0.00,,---,0.00,VWS V14.00,2013-04-02 18:45:00,
2013-04-02 14:50:00,56.6,31.3,30.17,NNW,337,4.0,6.0,38,0.00,,---,0.00,VWS V14.00,2013-04-02 18:50:00,
2013-04-02 14:56:00,57.0,31.0,30.17,West,271,0.0,6.0,37,0.00,,---,0.00,VWS V14.00,2013-04-02 18:56:00,
2013-04-02 15:00:00,57.3,31.9,30.17,East,92,1.0,6.0,38,0.00,,---,0.00,VWS V14.00,2013-04-02 19:00:00,
2013-04-02 15:01:00,57.4,33.3,30.17,NE,37,2.0,5.0,40,0.00,,---,0.00,VWS V14.00,2013-04-02 19:01:00,
2013-04-02 15:06:00,57.6,31.5,30.16,NNW,329,1.0,5.0,37,0.00,,---,0.00,VWS V14.00,2013-04-02 19:06:00,
2013-04-02 15:10:00,57.8,29.6,30.16,WNW,302,2.0,7.0,34,0.00,,---,0.00,VWS V14.00,2013-04-02 19:10:00,
2013-04-02 15:11:00,57.9,30.4,30.16,SW,227,2.0,5.0,35,0.00,,---,0.00,VWS V14.00,2013-04-02 19:11:00,
2013-04-02 15:16:00,58.2,30.7,30.16,NW,316,0.0,6.0,35,0.00,,---,0.00,VWS V14.00,2013-04-02 19:16:00,
2013-04-02 15:20:00,58.5,32.3,30.16,WSW,247,1.0,6.0,37,0.00,,---,0.00,VWS V14.00,2013-04-02 19:20:00,
2013-04-02 15:21:00,58.7,33.2,30.16,WNW,301,2.0,4.0,38,0.00,,---,0.00,VWS V14.00,2013-04-02 19:21:00,
2013-04-02 15:26:00,59.0,30.7,30.16,WNW,286,1.0,5.0,34,0.00,,---,0.00,VWS V14.00,2013-04-02 19:26:00,
2013-04-02 15:30:00,59.2,30.9,30.16,ENE,61,5.0,5.0,34,0.00,,---,0.00,VWS V14.00,2013-04-02 19:30:00,
2013-04-02 15:32:00,59.3,31.0,30.16,NW,315,5.0,7.0,34,0.00,,---,0.00,VWS V14.00,2013-04-02 19:32:00,
2013-04-02 15:37:00,59.3,32.4,30.16,WSW,245,4.0,7.0,36,0.00,,---,0.00,VWS V14.00,2013-04-02 19:37:00,
2013-04-02 15:40:00,59.2,30.9,30.16,WNW,283,0.0,7.0,34,0.00,,---,0.00,VWS V14.00,2013-04-02 19:40:00,
2013-04-02 15:42:00,59.1,29.3,30.15,WNW,283,0.0,2.0,32,0.00,,---,0.00,VWS V14.00,2013-04-02 19:42:00,
2013-04-02 15:47:00,58.8,30.5,30.16,WSW,250,1.0,5.0,34,0.00,,---,0.00,VWS V14.00,2013-04-02 19:47:00,
2013-04-02 15:50:00,58.6,28.9,30.15,North,360,2.0,5.0,32,0.00,,---,0.00,VWS V14.00,2013-04-02 19:50:00,
2013-04-02 15:52:00,58.4,30.2,30.15,East,80,0.0,3.0,34,0.00,,---,0.00,VWS V14.00,2013-04-02 19:52:00,
2013-04-02 15:57:00,58.0,28.3,30.15,NE,40,0.0,4.0,32,0.00,,---,0.00,VWS V14.00,2013-04-02 19:57:00,
2013-04-02 16:00:00,57.7,28.8,30.15,NNW,328,0.0,7.0,33,0.00,,---,0.00,VWS V14.00,2013-04-02 20:00:00,
2013-04-02 16:02:00,57.6,28.7,30.16,NNW,328,1.0,2.0,33,0.00,,---,0.00,VWS V14.00,2013-04-02 20:02:00,
2013-04-02 16:07:00,57.4,30.0,30.15,NW,320,1.0,2.0,35,0.00,,---,0.00,VWS V14.00,2013-04-02 20:07:00,
2013-04-02 16:10:00,57.4,29.3,30.15,WSW,244,0.0,2.0,34,0.00,,---,0.00,VWS V14.00,2013-04-02 20:10:00,
2013-04-02 16:12:00,57.4,29.3,30.15,WSW,248,0.0,2.0,34,0.00,,---,0.00,VWS V14.00,2013-04-02 20:12:00,
2013-04-02 16:17:00,57.5,30.8,30.15,WNW,290,0.0,3.0,36,0.00,,---,0.00,VWS V14.00,2013-04-02 20:17:00,
2013-04-02 16:20:00,57.7,27.3,30.15,WNW,290,0.0,3.0,31,0.00,,---,0.00,VWS V14.00,2013-04-02 20:20:00,
2013-04-02 16:22:00,57.9,29.7,30.15,SW,234,3.0,6.0,34,0.00,,---,0.00,VWS V14.00,2013-04-02 20:22:00,
2013-04-02 16:27:00,58.6,28.1,30.15,NW,321,0.0,6.0,31,0.00,,---,0.00,VWS V14.00,2013-04-02 20:27:00,
2013-04-02 16:30:00,58.7,28.9,30.15,WSW,244,0.0,7.0,32,0.00,,---,0.00,VWS V14.00,2013-04-02 20:30:00,
2013-04-02 16:33:00,58.6,28.1,30.15,West,259,0.0,2.0,31,0.00,,---,0.00,VWS V14.00,2013-04-02 20:33:00,
2013-04-02 16:38:00,58.5,28.0,30.15,West,272,0.0,4.0,31,0.00,,---,0.00,VWS V14.00,2013-04-02 20:38:00,
2013-04-02 16:40:00,58.4,28.7,30.15,West,272,0.0,4.0,32,0.00,,---,0.00,VWS V14.00,2013-04-02 20:40:00,
2013-04-02 16:43:00,58.2,30.0,30.15,West,272,1.0,2.0,34,0.00,,---,0.00,VWS V14.00,2013-04-02 20:43:00,
2013-04-02 16:48:00,58.1,28.4,30.15,ENE,57,0.0,5.0,32,0.00,,---,0.00,VWS V14.00,2013-04-02 20:48:00,
2013-04-02 16:50:00,57.9,30.4,30.15,NE,39,0.0,5.0,35,0.00,,---,0.00,VWS V14.00,2013-04-02 20:50:00,
2013-04-02 16:53:00,57.8,29.6,30.14,NE,40,0.0,1.0,34,0.00,,---,0.00,VWS V14.00,2013-04-02 20:53:00,
2013-04-02 16:58:00,57.8,29.6,30.14,NNE,17,0.0,2.0,34,0.00,,---,0.00,VWS V14.00,2013-04-02 20:58:00,
2013-04-02 17:00:00,57.9,29.7,30.15,NE,38,0.0,4.0,34,0.00,,---,0.00,VWS V14.00,2013-04-02 21:00:00,
2013-04-02 17:03:00,58.0,28.3,30.14,NE,37,0.0,2.0,32,0.00,,---,0.00,VWS V14.00,2013-04-02 21:03:00,
2013-04-02 17:08:00,58.0,29.1,30.14,North,5,0.0,3.0,33,0.00,,---,0.00,VWS V14.00,2013-04-02 21:08:00,
2013-04-02 17:10:00,58.0,29.8,30.14,NNE,28,0.0,3.0,34,0.00,,---,0.00,VWS V14.00,2013-04-02 21:10:00,
2013-04-02 17:13:00,58.1,30.6,30.14,NNE,31,1.0,1.0,35,0.00,,---,0.00,VWS V14.00,2013-04-02 21:13:00,
2013-04-02 17:18:00,58.1,30.6,30.14,NE,44,1.0,2.0,35,0.00,,---,0.00,VWS V14.00,2013-04-02 21:18:00,
2013-04-02 17:20:00,58.0,28.3,30.14,ENE,74,3.0,6.0,32,0.00,,---,0.00,VWS V14.00,2013-04-02 21:20:00,
2013-04-02 17:23:00,57.8,30.4,30.14,NE,51,0.0,5.0,35,0.00,,---,0.00,VWS V14.00,2013-04-02 21:23:00,
2013-04-02 17:28:00,57.7,29.5,30.14,NE,40,0.0,5.0,34,0.00,,---,0.00,VWS V14.00,2013-04-02 21:28:00,
2013-04-02 17:30:00,57.8,29.6,30.14,NNE,18,0.0,5.0,34,0.00,,---,0.00,VWS V14.00,2013-04-02 21:30:00,
2013-04-02 17:33:00,57.9,29.7,30.14,NNE,18,1.0,1.0,34,0.00,,---,0.00,VWS V14.00,2013-04-02 21:33:00,
2013-04-02 17:38:00,58.1,28.4,30.15,NNE,15,1.0,2.0,32,0.00,,---,0.00,VWS V14.00,2013-04-02 21:38:00,
2013-04-02 17:40:00,58.3,29.3,30.15,NW,313,1.0,5.0,33,0.00,,---,0.00,VWS V14.00,2013-04-02 21:40:00,
2013-04-02 17:43:00,58.5,29.5,30.14,WNW,290,4.0,5.0,33,0.00,,---,0.00,VWS V14.00,2013-04-02 21:43:00,
2013-04-02 17:48:00,58.7,30.4,30.15,North,355,1.0,5.0,34,0.00,,---,0.00,VWS V14.00,2013-04-02 21:48:00,
2013-04-02 17:50:00,58.7,31.1,30.15,North,355,0.0,5.0,35,0.00,,---,0.00,VWS V14.00,2013-04-02 21:50:00,
2013-04-02 17:53:00,58.6,29.6,30.15,North,351,1.0,2.0,33,0.00,,---,0.00,VWS V14.00,2013-04-02 21:53:00,
2013-04-02 17:58:00,58.2,29.3,30.15,North,360,1.0,4.0,33,0.00,,---,0.00,VWS V14.00,2013-04-02 21:58:00,
2013-04-02 18:00:00,58.0,29.1,30.15,ENE,71,1.0,5.0,33,0.00,,---,0.00,VWS V14.00,2013-04-02 22:00:00,
2013-04-02 18:03:00,57.6,29.5,30.15,NNE,15,1.0,4.0,34,0.00,,---,0.00,VWS V14.00,2013-04-02 22:03:00,
2013-04-02 18:09:00,57.1,29.7,30.15,NE,53,5.0,6.0,35,0.00,,---,0.00,VWS V14.00,2013-04-02 22:09:00,
2013-04-02 18:10:00,56.9,29.5,30.15,North,5,1.0,8.0,35,0.00,,---,0.00,VWS V14.00,2013-04-02 22:10:00,
2013-04-02 18:14:00,56.6,30.6,30.15,NE,47,1.0,3.0,37,0.00,,---,0.00,VWS V14.00,2013-04-02 22:14:00,
2013-04-02 18:19:00,56.2,29.6,30.15,NNE,24,1.0,6.0,36,0.00,,---,0.00,VWS V14.00,2013-04-02 22:19:00,
2013-04-02 18:20:00,56.1,29.5,30.15,NNE,28,1.0,6.0,36,0.00,,---,0.00,VWS V14.00,2013-04-02 22:20:00,
2013-04-02 18:24:00,55.9,30.7,30.15,NNE,25,1.0,5.0,38,0.00,,---,0.00,VWS V14.00,2013-04-02 22:24:00,
2013-04-02 18:29:00,55.6,30.4,30.15,NE,54,0.0,5.0,38,0.00,,---,0.00,VWS V14.00,2013-04-02 22:29:00,
2013-04-02 18:30:00,55.6,30.4,30.15,ENE,57,1.0,5.0,38,0.00,,---,0.00,VWS V14.00,2013-04-02 22:30:00,
2013-04-02 18:34:00,55.4,28.9,30.16,NNE,15,0.0,4.0,36,0.00,,---,0.00,VWS V14.00,2013-04-02 22:34:00,
2013-04-02 18:39:00,55.2,29.4,30.16,NNE,27,0.0,4.0,37,0.00,,---,0.00,VWS V14.00,2013-04-02 22:39:00,
2013-04-02 18:40:00,55.2,29.4,30.16,NNE,27,0.0,4.0,37,0.00,,---,0.00,VWS V14.00,2013-04-02 22:40:00,
2013-04-02 18:44:00,55.2,30.7,30.16,NNE,26,0.0,1.0,39,0.00,,---,0.00,VWS V14.00,2013-04-02 22:44:00,
2013-04-02 18:49:00,55.2,29.4,30.16,NNE,24,0.0,3.0,37,0.00,,---,0.00,VWS V14.00,2013-04-02 22:49:00,
2013-04-02 18:50:00,55.2,29.4,30.16,NNE,24,0.0,3.0,37,0.00,,---,0.00,VWS V14.00,2013-04-02 22:50:00,
2013-04-02 18:54:00,55.1,29.3,30.16,NNE,26,0.0,2.0,37,0.00,,---,0.00,VWS V14.00,2013-04-02 22:54:00,
2013-04-02 18:59:00,55.0,29.2,30.16,NE,49,0.0,2.0,37,0.00,,---,0.00,VWS V14.00,2013-04-02 22:59:00,
2013-04-02 19:00:00,54.9,29.1,30.16,NE,48,0.0,2.0,37,0.00,,---,0.00,VWS V14.00,2013-04-02 23:00:00,
2013-04-02 19:04:00,54.9,29.1,30.16,NE,44,0.0,4.0,37,0.00,,---,0.00,VWS V14.00,2013-04-02 23:04:00,
2013-04-02 19:10:00,54.8,28.4,30.16,ENE,76,0.0,5.0,36,0.00,,---,0.00,VWS V14.00,2013-04-02 23:10:00,
2013-04-02 19:15:00,54.6,28.9,30.16,North,355,1.0,2.0,37,0.00,,---,0.00,VWS V14.00,2013-04-02 23:15:00,
2013-04-02 19:20:00,54.5,28.8,30.16,NE,46,0.0,2.0,37,0.00,,---,0.00,VWS V14.00,2013-04-02 23:20:00,
2013-04-02 19:25:00,54.3,27.9,30.16,NNW,329,0.0,2.0,36,0.00,,---,0.00,VWS V14.00,2013-04-02 23:25:00,
2013-04-02 19:30:00,54.2,29.2,30.16,NNW,331,1.0,2.0,38,0.00,,---,0.00,VWS V14.00,2013-04-02 23:30:00,
2013-04-02 19:35:00,54.1,30.3,30.16,NNE,19,0.0,1.0,40,0.00,,---,0.00,VWS V14.00,2013-04-02 23:35:00,
2013-04-02 19:40:00,53.9,30.1,30.16,NNE,19,0.0,1.0,40,0.00,,---,0.00,VWS V14.00,2013-04-02 23:40:00,
2013-04-02 19:45:00,53.8,30.7,30.17,NNE,19,0.0,0.0,41,0.00,,---,0.00,VWS V14.00,2013-04-02 23:45:00,
2013-04-02 19:50:00,53.6,28.6,30.16,NNE,19,0.0,0.0,38,0.00,,---,0.00,VWS V14.00,2013-04-02 23:50:00,
2013-04-02 19:55:00,53.5,31.0,30.16,NNE,19,0.0,0.0,42,0.00,,---,0.00,VWS V14.00,2013-04-02 23:55:00,
2013-04-02 20:00:00,53.5,32.1,30.16,NNE,19,0.0,0.0,44,0.00,,---,0.00,VWS V14.00,2013-04-03 00:00:00,
2013-04-02 20:05:00,53.3,32.5,30.16,NNE,19,0.0,0.0,45,0.00,,---,0.00,VWS V14.00,2013-04-03 00:05:00,
2013-04-02 20:10:00,53.1,31.2,30.16,NNW,327,1.0,3.0,43,0.00,,---,0.00,VWS V14.00,2013-04-03 00:10:00,
2013-04-02 20:15:00,52.8,30.4,30.16,North,5,0.0,2.0,42,0.00,,---,0.00,VWS V14.00,2013-04-03 00:15:00,
2013-04-02 20:20:00,52.7,30.3,30.16,NNE,23,2.0,2.0,42,0.00,,---,0.00,VWS V14.00,2013-04-03 00:20:00,
2013-04-02 20:25:00,52.5,31.2,30.16,NNE,23,0.0,2.0,44,0.00,,---,0.00,VWS V14.00,2013-04-03 00:25:00,
2013-04-02 20:30:00,52.4,30.6,30.16,NNE,23,0.0,0.0,43,0.00,,---,0.00,VWS V14.00,2013-04-03 00:30:00,
2013-04-02 20:35:00,52.3,31.6,30.16,NNE,23,0.0,0.0,45,0.00,,---,0.00,VWS V14.00,2013-04-03 00:35:00,
2013-04-02 20:40:00,52.1,32.0,30.16,NNW,338,0.0,0.0,46,0.00,,---,0.00,VWS V14.00,2013-04-03 00:40:00,
2013-04-02 20:46:00,51.9,30.1,30.16,NNW,338,0.0,0.0,43,0.00,,---,0.00,VWS V14.00,2013-04-03 00:46:00,
2013-04-02 20:50:00,51.7,31.1,30.16,NNW,338,1.0,1.0,45,0.00,,---,0.00,VWS V14.00,2013-04-03 00:50:00,
2013-04-02 20:51:00,51.8,31.1,30.17,NNW,338,1.0,1.0,45,0.00,,---,0.00,VWS V14.00,2013-04-03 00:51:00,
2013-04-02 20:56:00,51.6,31.5,30.17,NNE,23,0.0,2.0,46,0.00,,---,0.00,VWS V14.00,2013-04-03 00:56:00,
2013-04-02 21:00:00,51.5,30.9,30.17,NNW,346,0.0,2.0,45,0.00,,---,0.00,VWS V14.00,2013-04-03 01:00:00,
2013-04-02 21:01:00,51.5,30.9,30.17,NNW,346,0.0,0.0,45,0.00,,---,0.00,VWS V14.00,2013-04-03 01:01:00,
2013-04-02 21:06:00,51.4,30.2,30.16,NNW,346,0.0,0.0,44,0.00,,---,0.00,VWS V14.00,2013-04-03 01:06:00,
2013-04-02 21:10:00,51.3,32.3,30.17,NNW,346,0.0,0.0,48,0.00,,---,0.00,VWS V14.00,2013-04-03 01:10:00,
2013-04-02 21:11:00,51.3,34.3,30.16,NNW,346,0.0,0.0,52,0.00,,---,0.00,VWS V14.00,2013-04-03 01:11:00,
2013-04-02 21:16:00,51.2,31.7,30.17,NNW,346,0.0,0.0,47,0.00,,---,0.00,VWS V14.00,2013-04-03 01:16:00,
2013-04-02 21:20:00,51.1,32.6,30.17,NNW,346,0.0,0.0,49,0.00,,---,0.00,VWS V14.00,2013-04-03 01:20:00,
2013-04-02 21:21:00,51.0,32.5,30.17,NNW,346,0.0,0.0,49,0.00,,---,0.00,VWS V14.00,2013-04-03 01:21:00,
2013-04-02 21:26:00,50.9,30.9,30.16,NNW,346,0.0,1.0,46,0.00,,---,0.00,VWS V14.00,2013-04-03 01:26:00,
2013-04-02 21:30:00,50.8,31.3,30.17,NW,309,0.0,3.0,47,0.00,,---,0.00,VWS V14.00,2013-04-03 01:30:00,
2013-04-02 21:32:00,50.8,31.8,30.17,NW,309,0.0,1.0,48,0.00,,---,0.00,VWS V14.00,2013-04-03 01:32:00,
2013-04-02 21:37:00,50.7,31.7,30.16,NW,309,0.0,1.0,48,0.00,,---,0.00,VWS V14.00,2013-04-03 01:37:00,
2013-04-02 21:40:00,50.7,32.2,30.17,NW,314,2.0,2.0,49,0.00,,---,0.00,VWS V14.00,2013-04-03 01:40:00,
2013-04-02 21:42:00,50.6,31.6,30.17,NW,319,0.0,4.0,48,0.00,,---,0.00,VWS V14.00,2013-04-03 01:42:00,
2013-04-02 21:47:00,50.6,31.6,30.17,NW,319,0.0,4.0,48,0.00,,---,0.00,VWS V14.00,2013-04-03 01:47:00,
2013-04-02 21:50:00,50.5,30.5,30.17,NW,319,0.0,4.0,46,0.00,,---,0.00,VWS V14.00,2013-04-03 01:50:00,
2013-04-02 21:52:00,50.5,30.0,30.17,NW,319,0.0,0.0,45,0.00,,---,0.00,VWS V14.00,2013-04-03 01:52:00,
2013-04-02 21:57:00,50.4,30.4,30.17,North,355,0.0,4.0,46,0.00,,---,0.00,VWS V14.00,2013-04-03 01:57:00,
2013-04-02 22:00:00,50.4,29.9,30.17,North,360,0.0,4.0,45,0.00,,---,0.00,VWS V14.00,2013-04-03 02:00:00,
2013-04-02 22:02:00,50.4,31.0,30.17,North,360,0.0,0.0,47,0.00,,---,0.00,VWS V14.00,2013-04-03 02:02:00,
2013-04-02 22:07:00,50.3,29.8,30.17,North,360,0.0,1.0,45,0.00,,---,0.00,VWS V14.00,2013-04-03 02:07:00,
2013-04-02 22:10:00,50.3,29.8,30.17,NNW,346,2.0,2.0,45,0.00,,---,0.00,VWS V14.00,2013-04-03 02:10:00,
2013-04-02 22:12:00,50.3,29.8,30.17,NNE,19,1.0,3.0,45,0.00,,---,0.00,VWS V14.00,2013-04-03 02:12:00,
2013-04-02 22:17:00,50.2,30.2,30.17,NNE,19,0.0,3.0,46,0.00,,---,0.00,VWS V14.00,2013-04-03 02:17:00,
2013-04-02 22:20:00,50.2,29.7,30.17,NNE,19,0.0,3.0,45,0.00,,---,0.00,VWS V14.00,2013-04-03 02:20:00,
2013-04-02 22:22:00,50.2,30.8,30.17,NNE,13,0.0,1.0,47,0.00,,---,0.00,VWS V14.00,2013-04-03 02:22:00,
2013-04-02 22:27:00,50.1,30.1,30.18,NNE,13,0.0,1.0,46,0.00,,---,0.00,VWS V14.00,2013-04-03 02:27:00,
2013-04-02 22:30:00,50.1,30.1,30.18,NNE,13,0.0,1.0,46,0.00,,---,0.00,VWS V14.00,2013-04-03 02:30:00,
2013-04-02 22:32:00,50.1,32.2,30.18,NNE,13,1.0,1.0,50,0.00,,---,0.00,VWS V14.00,2013-04-03 02:32:00,
2013-04-02 22:37:00,50.0,29.5,30.18,NNE,13,0.0,5.0,45,0.00,,---,0.00,VWS V14.00,2013-04-03 02:37:00,
2013-04-02 22:40:00,49.9,29.4,30.18,NNE,13,0.0,5.0,45,0.00,,---,0.00,VWS V14.00,2013-04-03 02:40:00,
2013-04-02 22:42:00,49.9,29.4,30.18,NNE,16,0.0,1.0,45,0.00,,---,0.00,VWS V14.00,2013-04-03 02:42:00,
2013-04-02 22:47:00,49.9,30.0,30.19,NNE,16,0.0,1.0,46,0.00,,---,0.00,VWS V14.00,2013-04-03 02:47:00,
2013-04-02 22:50:00,49.9,29.4,30.19,NNE,16,0.0,1.0,45,0.00,,---,0.00,VWS V14.00,2013-04-03 02:50:00,
2013-04-02 22:52:00,49.9,30.5,30.19,NNE,16,0.0,0.0,47,0.00,,---,0.00,VWS V14.00,2013-04-03 02:52:00,
2013-04-02 22:57:00,49.8,29.9,30.19,North,355,1.0,3.0,46,0.00,,---,0.00,VWS V14.00,2013-04-03 02:57:00,
2013-04-02 23:00:00,49.8,30.9,30.19,North,355,0.0,3.0,48,0.00,,---,0.00,VWS V14.00,2013-04-03 03:00:00,
2013-04-02 23:02:00,49.8,30.9,30.19,North,355,0.0,0.0,48,0.00,,---,0.00,VWS V14.00,2013-04-03 03:02:00,
2013-04-02 23:07:00,49.8,31.9,30.19,North,355,0.0,0.0,50,0.00,,---,0.00,VWS V14.00,2013-04-03 03:07:00,
2013-04-02 23:10:00,49.7,31.8,30.19,North,355,0.0,1.0,50,0.00,,---,0.00,VWS V14.00,2013-04-03 03:10:00,
2013-04-02 23:12:00,49.7,31.8,30.19,North,355,0.0,0.0,50,0.00,,---,0.00,VWS V14.00,2013-04-03 03:12:00,
2013-04-02 23:17:00,49.6,29.7,30.19,NNE,20,0.0,2.0,46,0.00,,---,0.00,VWS V14.00,2013-04-03 03:17:00,
2013-04-02 23:20:00,49.6,30.7,30.19,NNE,20,0.0,2.0,48,0.00,,---,0.00,VWS V14.00,2013-04-03 03:20:00,
2013-04-02 23:22:00,49.5,30.1,30.19,NNE,20,0.0,1.0,47,0.00,,---,0.00,VWS V14.00,2013-04-03 03:22:00,
2013-04-02 23:27:00,49.5,31.1,30.19,NNE,24,1.0,2.0,49,0.00,,---,0.00,VWS V14.00,2013-04-03 03:27:00,
2013-04-02 23:30:00,49.4,30.0,30.19,NNE,24,0.0,2.0,47,0.00,,---,0.00,VWS V14.00,2013-04-03 03:30:00,
2013-04-02 23:32:00,49.4,30.0,30.19,North,11,1.0,2.0,47,0.00,,---,0.00,VWS V14.00,2013-04-03 03:32:00,
2013-04-02 23:38:00,49.4,30.5,30.19,NE,51,0.0,5.0,48,0.00,,---,0.00,VWS V14.00,2013-04-03 03:38:00,
2013-04-02 23:40:00,49.3,29.9,30.19,NE,53,0.0,5.0,47,0.00,,---,0.00,VWS V14.00,2013-04-03 03:40:00,
2013-04-02 23:43:00,49.3,30.5,30.19,NE,53,0.0,0.0,48,0.00,,---,0.00,VWS V14.00,2013-04-03 03:43:00,
2013-04-02 23:48:00,49.2,31.4,30.19,NE,53,0.0,1.0,50,0.00,,---,0.00,VWS V14.00,2013-04-03 03:48:00,
2013-04-02 23:50:00,49.1,30.8,30.19,NE,53,0.0,1.0,49,0.00,,---,0.00,VWS V14.00,2013-04-03 03:50:00,
2013-04-02 23:53:00,49.1,30.3,30.20,NE,53,0.0,0.0,48,0.00,,---,0.00,VWS V14.00,2013-04-03 03:53:00,
2013-04-02 23:58:00,49.0,31.2,30.20,NNE,13,0.0,2.0,50,0.00,,---,0.00,VWS V14.00,2013-04-03 03:58:00,